createdAt,value
2022-11-10T00:00:36.869Z,11.43
2022-11-10T00:03:22.283Z,10.23
2022-11-10T00:06:08.439Z,7.22
2022-11-10T00:08:53.857Z,7.90
2022-11-10T00:11:39.859Z,7.97
2022-11-10T00:14:43.289Z,7.97
2022-11-10T00:17:28.688Z,8.90
2022-11-10T00:20:13.827Z,9.30
2022-11-10T00:22:59.260Z,7.72
2022-11-10T00:25:44.442Z,6.97
2022-11-10T00:28:31.383Z,7.25
2022-11-10T00:31:16.503Z,7.22
2022-11-10T00:34:01.957Z,7.50
2022-11-10T00:36:47.168Z,7.32
2022-11-10T00:39:32.733Z,8.50
2022-11-10T00:42:17.799Z,6.18
2022-11-10T00:45:03.210Z,7.13
2022-11-10T00:47:48.644Z,6.18
2022-11-10T00:50:33.857Z,7.57
2022-11-10T00:53:19.807Z,9.05
2022-11-10T00:56:05.284Z,7.53
2022-11-10T00:58:50.648Z,6.80
2022-11-10T01:01:35.795Z,8.02
2022-11-10T01:04:20.941Z,6.80
2022-11-10T01:07:06.358Z,7.63
2022-11-10T01:09:51.590Z,6.65
2022-11-10T01:12:36.994Z,6.40
2022-11-10T01:15:27.300Z,5.97
2022-11-10T01:18:13.945Z,9.77
2022-11-10T01:20:59.202Z,7.57
2022-11-10T01:23:44.774Z,5.85
2022-11-10T01:26:30.213Z,7.40
2022-11-10T01:29:15.705Z,6.28
2022-11-10T01:32:01.102Z,6.53
2022-11-10T01:34:46.787Z,6.50
2022-11-10T01:37:31.904Z,5.40
2022-11-10T01:40:17.281Z,5.68
2022-11-10T01:43:02.625Z,6.72
2022-11-10T01:45:50.517Z,7.28
2022-11-10T01:48:41.573Z,4.97
2022-11-10T01:51:35.449Z,6.47
2022-11-10T01:54:23.877Z,8.57
2022-11-10T01:57:11.259Z,8.05
2022-11-10T01:59:56.917Z,4.32
2022-11-10T02:02:57.953Z,3.95
2022-11-10T02:05:43.711Z,4.20
2022-11-10T02:08:30.428Z,5.93
2022-11-10T02:11:16.206Z,6.30
2022-11-10T02:14:01.709Z,4.22
2022-11-10T02:16:46.888Z,4.78
2022-11-10T02:19:39.191Z,4.97
2022-11-10T02:22:24.427Z,7.80
2022-11-10T02:25:09.927Z,5.10
2022-11-10T02:27:54.994Z,5.60
2022-11-10T02:30:40.564Z,6.00
2022-11-10T02:33:25.956Z,5.80
2022-11-10T02:36:11.386Z,5.13
2022-11-10T02:38:56.775Z,5.70
2022-11-10T02:41:42.122Z,5.68
2022-11-10T02:44:27.681Z,6.40
2022-11-10T02:47:12.755Z,6.35
2022-11-10T02:49:58.242Z,8.00
2022-11-10T02:52:43.524Z,6.53
2022-11-10T02:55:28.936Z,7.32
2022-11-10T02:58:14.033Z,5.45
2022-11-10T03:00:59.536Z,5.50
2022-11-10T03:03:45.248Z,5.00
2022-11-10T03:06:30.687Z,6.18
2022-11-10T03:09:16.298Z,5.38
2022-11-10T03:12:01.334Z,5.43
2022-11-10T03:14:46.854Z,5.13
2022-11-10T03:17:32.051Z,5.05
2022-11-10T03:20:17.834Z,5.13
2022-11-10T03:23:04.485Z,5.50
2022-11-10T03:25:49.654Z,6.25
2022-11-10T03:28:35.164Z,7.28
2022-11-10T03:31:20.603Z,6.55
2022-11-10T03:34:05.883Z,6.75
2022-11-10T03:36:51.351Z,6.40
2022-11-10T03:39:36.667Z,5.07
2022-11-10T03:42:22.173Z,7.88
2022-11-10T03:45:07.621Z,5.05
2022-11-10T03:47:52.812Z,5.93
2022-11-10T03:50:38.016Z,6.00
2022-11-10T03:53:23.567Z,8.32
2022-11-10T03:56:09.144Z,5.88
2022-11-10T03:58:54.501Z,4.78
2022-11-10T04:01:39.970Z,6.10
2022-11-10T04:04:43.884Z,5.88
2022-11-10T04:07:47.734Z,5.00
2022-11-10T04:10:35.473Z,6.68
2022-11-10T04:13:38.905Z,8.65
2022-11-10T04:16:24.404Z,5.30
2022-11-10T04:19:09.480Z,5.82
2022-11-10T04:21:54.947Z,6.15
2022-11-10T04:24:39.989Z,6.32
2022-11-10T04:27:25.491Z,6.78
2022-11-10T04:30:11.105Z,5.97
2022-11-10T04:32:56.390Z,6.32
2022-11-10T04:35:42.665Z,7.65
2022-11-10T04:38:27.963Z,13.90
2022-11-10T04:41:13.647Z,6.05
2022-11-10T04:43:59.626Z,9.70
2022-11-10T04:46:44.665Z,5.80
2022-11-10T04:49:29.981Z,5.85
2022-11-10T04:52:15.381Z,7.80
2022-11-10T04:55:00.832Z,6.35
2022-11-10T04:57:45.863Z,6.10
2022-11-10T05:00:31.727Z,7.65
2022-11-10T05:03:17.118Z,6.65
2022-11-10T05:06:02.186Z,9.55
2022-11-10T05:08:47.820Z,6.63
2022-11-10T05:11:32.982Z,8.35
2022-11-10T05:14:18.313Z,6.15
2022-11-10T05:17:03.786Z,7.57
2022-11-10T05:19:49.092Z,7.22
2022-11-10T05:22:34.212Z,7.65
2022-11-10T05:25:19.673Z,8.35
2022-11-10T05:28:05.923Z,8.15
2022-11-10T05:30:51.153Z,9.48
2022-11-10T05:33:36.861Z,6.63
2022-11-10T05:36:22.476Z,6.70
2022-11-10T05:39:07.543Z,7.45
2022-11-10T05:41:53.011Z,7.32
2022-11-10T05:44:38.101Z,5.57
2022-11-10T05:47:23.283Z,9.27
2022-11-10T05:50:09.217Z,8.68
2022-11-10T05:52:55.425Z,6.03
2022-11-10T05:55:40.833Z,5.90
2022-11-10T05:58:26.148Z,6.40
2022-11-10T06:01:11.366Z,5.95
2022-11-10T06:03:57.070Z,7.32
2022-11-10T06:06:42.405Z,11.07
2022-11-10T06:09:28.215Z,8.20
2022-11-10T06:12:13.529Z,10.00
2022-11-10T06:14:59.150Z,6.38
2022-11-10T06:17:45.293Z,6.88
2022-11-10T06:20:30.717Z,7.35
2022-11-10T06:23:16.031Z,10.65
2022-11-10T06:26:01.025Z,7.05
2022-11-10T06:28:46.473Z,7.35
2022-11-10T06:31:31.956Z,7.35
2022-11-10T06:34:17.427Z,8.35
2022-11-10T06:37:02.903Z,8.90
2022-11-10T06:39:48.280Z,9.57
2022-11-10T06:42:34.072Z,7.05
2022-11-10T06:45:19.344Z,11.20
2022-11-10T06:48:07.803Z,8.88
2022-11-10T06:50:53.206Z,7.10
2022-11-10T06:53:38.382Z,10.95
2022-11-10T06:56:23.775Z,9.32
2022-11-10T06:59:09.280Z,7.78
2022-11-10T07:01:54.821Z,6.43
2022-11-10T07:04:40.221Z,6.88
2022-11-10T07:07:25.403Z,9.30
2022-11-10T07:10:10.875Z,8.43
2022-11-10T07:12:57.533Z,6.68
2022-11-10T07:15:42.813Z,9.57
2022-11-10T07:18:27.887Z,10.65
2022-11-10T07:21:13.139Z,6.85
2022-11-10T07:23:58.515Z,9.43
2022-11-10T07:26:43.709Z,8.02
2022-11-10T07:29:28.830Z,9.07
2022-11-10T07:32:14.955Z,7.40
2022-11-10T07:35:00.144Z,8.50
2022-11-10T07:37:45.528Z,7.53
2022-11-10T07:40:30.957Z,15.93
2022-11-10T07:43:16.180Z,18.88
2022-11-10T07:46:01.781Z,16.00
2022-11-10T07:48:47.543Z,13.52
2022-11-10T07:51:33.849Z,51.33
2022-11-10T07:54:21.927Z,35.35
2022-11-10T07:57:07.336Z,35.45
2022-11-10T07:59:55.474Z,26.17
2022-11-10T08:02:43.361Z,35.03
2022-11-10T08:05:28.476Z,20.80
2022-11-10T08:08:13.691Z,13.02
2022-11-10T08:10:58.964Z,24.20
2022-11-10T08:13:44.047Z,24.08
2022-11-10T08:16:29.577Z,20.77
2022-11-10T08:19:15.071Z,22.73
2022-11-10T08:22:00.188Z,19.60
2022-11-10T08:24:45.517Z,21.45
2022-11-10T08:27:30.544Z,19.42
2022-11-10T08:30:16.140Z,21.67
2022-11-10T08:33:01.830Z,21.27
2022-11-10T08:35:53.277Z,19.50
2022-11-10T08:38:38.752Z,19.48
2022-11-10T08:41:23.916Z,15.73
2022-11-10T08:44:11.178Z,18.08
2022-11-10T08:46:56.668Z,19.08
2022-11-10T08:49:41.870Z,21.00
2022-11-10T08:52:27.315Z,19.23
2022-11-10T08:55:12.456Z,18.58
2022-11-10T08:57:58.630Z,20.70
2022-11-10T09:00:44.420Z,21.25
2022-11-10T09:03:29.756Z,20.38
2022-11-10T09:06:15.017Z,18.08
2022-11-10T09:09:00.015Z,26.02
2022-11-10T09:11:45.389Z,23.45
2022-11-10T09:14:30.727Z,27.95
2022-11-10T09:17:16.021Z,24.75
2022-11-10T09:20:01.985Z,18.40
2022-11-10T09:22:47.387Z,21.08
2022-11-10T09:25:32.660Z,18.30
2022-11-10T09:28:18.195Z,20.92
2022-11-10T09:31:03.716Z,16.48
2022-11-10T09:33:49.346Z,16.45
2022-11-10T09:36:34.571Z,13.98
2022-11-10T09:39:19.631Z,16.15
2022-11-10T09:42:06.489Z,13.65
2022-11-10T09:44:54.665Z,13.55
2022-11-10T09:48:00.097Z,14.20
2022-11-10T09:50:48.280Z,15.98
2022-11-10T09:53:42.244Z,13.07
2022-11-10T09:56:36.644Z,13.23
2022-11-10T09:59:29.444Z,12.88
2022-11-10T10:02:28.383Z,13.45
2022-11-10T10:05:32.401Z,13.75
2022-11-10T10:08:17.503Z,15.90
2022-11-10T10:11:08.644Z,12.68
2022-11-10T10:13:56.605Z,14.93
2022-11-10T10:16:57.120Z,16.67
2022-11-10T10:20:05.921Z,15.60
2022-11-10T10:22:51.543Z,17.30
2022-11-10T10:25:38.814Z,12.68
2022-11-10T10:28:30.536Z,11.32
2022-11-10T10:31:19.229Z,11.85
2022-11-10T10:34:05.181Z,12.27
2022-11-10T10:36:50.783Z,12.18
2022-11-10T10:39:44.055Z,12.50
2022-11-10T10:42:31.652Z,14.13
2022-11-10T10:45:22.906Z,11.80
2022-11-10T10:48:25.131Z,11.18
2022-11-10T10:51:27.062Z,10.77
2022-11-10T10:54:23.054Z,10.00
2022-11-10T10:57:20.617Z,10.70
2022-11-10T11:00:19.895Z,12.18
2022-11-10T11:03:07.169Z,11.63
2022-11-10T11:06:02.479Z,9.85
2022-11-10T11:08:59.381Z,11.43
2022-11-10T11:11:46.385Z,9.52
2022-11-10T11:14:32.169Z,10.32
2022-11-10T11:17:21.742Z,10.95
2022-11-10T11:20:13.303Z,9.55
2022-11-10T11:23:07.724Z,12.10
2022-11-10T11:25:54.745Z,11.90
2022-11-10T11:28:58.274Z,11.00
2022-11-10T11:31:56.110Z,8.95
2022-11-10T11:35:02.350Z,8.73
2022-11-10T11:37:47.761Z,12.07
2022-11-10T11:40:45.269Z,10.13
2022-11-10T11:43:36.422Z,8.45
2022-11-10T11:46:49.597Z,12.13
2022-11-10T11:49:34.999Z,7.38
2022-11-10T11:52:26.140Z,8.82
2022-11-10T11:55:18.535Z,11.35
2022-11-10T11:58:22.994Z,11.88
2022-11-10T12:01:27.165Z,12.10
2022-11-10T12:04:12.401Z,9.38
2022-11-10T12:07:13.303Z,8.77
2022-11-10T12:10:04.264Z,8.85
2022-11-10T12:13:00.253Z,8.98
2022-11-10T12:15:48.500Z,11.60
2022-11-10T12:18:37.831Z,10.07
2022-11-10T12:21:29.232Z,9.18
2022-11-10T12:24:14.523Z,7.65
2022-11-10T12:27:09.119Z,10.20
2022-11-10T12:30:01.394Z,9.23
2022-11-10T12:33:07.127Z,10.40
2022-11-10T12:35:53.790Z,9.95
2022-11-10T12:38:59.594Z,9.07
2022-11-10T12:41:58.108Z,7.78
2022-11-10T12:44:54.189Z,16.00
2022-11-10T12:47:42.963Z,9.48
2022-11-10T12:50:32.426Z,8.98
2022-11-10T12:53:20.374Z,8.38
2022-11-10T12:56:13.846Z,9.55
2022-11-10T12:59:17.808Z,6.97
2022-11-10T13:02:16.838Z,7.25
2022-11-10T13:05:14.056Z,7.80
2022-11-10T13:08:14.216Z,8.13
2022-11-10T13:11:02.162Z,7.15
2022-11-10T13:14:07.720Z,13.35
2022-11-10T13:16:54.374Z,7.00
2022-11-10T13:19:47.509Z,7.72
2022-11-10T13:22:34.475Z,7.25
2022-11-10T13:25:38.264Z,8.27
2022-11-10T13:28:41.851Z,10.43
2022-11-10T13:31:26.757Z,9.35
2022-11-10T13:34:26.398Z,8.20
2022-11-10T13:37:29.635Z,10.98
2022-11-10T13:40:21.065Z,6.18
2022-11-10T13:43:19.595Z,6.45
2022-11-10T13:46:05.487Z,13.55
2022-11-10T13:48:53.530Z,9.15
2022-11-10T13:51:43.585Z,7.78
2022-11-10T13:54:34.626Z,8.60
2022-11-10T13:57:38.515Z,9.63
2022-11-10T14:00:26.165Z,9.40
2022-11-10T14:03:31.552Z,9.68
2022-11-10T14:06:36.043Z,8.45
2022-11-10T14:09:29.018Z,8.75
2022-11-10T14:12:28.473Z,7.75
2022-11-10T14:15:16.052Z,6.65
2022-11-10T14:18:01.299Z,8.18
2022-11-10T14:20:47.739Z,12.07
2022-11-10T14:23:42.260Z,7.10
2022-11-10T14:26:39.272Z,6.63
2022-11-10T14:29:28.106Z,6.18
2022-11-10T14:32:19.020Z,5.00
2022-11-10T14:35:04.665Z,6.75
2022-11-10T14:37:49.867Z,5.85
2022-11-10T14:40:40.918Z,9.23
2022-11-10T14:43:26.494Z,7.20
2022-11-10T14:46:13.517Z,7.07
2022-11-10T14:48:59.796Z,6.53
2022-11-10T14:51:45.647Z,5.88
2022-11-10T14:54:30.757Z,8.93
2022-11-10T14:57:17.655Z,5.80
2022-11-10T15:00:06.124Z,10.02
2022-11-10T15:02:52.532Z,5.35
2022-11-10T15:05:38.671Z,3.88
2022-11-10T15:08:24.624Z,7.28
2022-11-10T15:11:31.929Z,5.57
2022-11-10T15:14:39.505Z,5.05
2022-11-10T15:17:43.537Z,4.03
2022-11-10T15:20:28.709Z,7.18
2022-11-10T15:23:22.545Z,3.45
2022-11-10T15:26:19.069Z,6.35
2022-11-10T15:29:04.458Z,4.85
2022-11-10T15:31:50.502Z,4.95
2022-11-10T15:34:42.787Z,7.95
2022-11-10T15:37:31.153Z,12.02
2022-11-10T15:40:29.415Z,4.57
2022-11-10T15:43:22.237Z,4.90
2022-11-10T15:46:18.232Z,5.78
2022-11-10T15:49:04.006Z,4.88
2022-11-10T15:51:50.085Z,6.43
2022-11-10T15:54:35.917Z,5.32
2022-11-10T15:57:21.028Z,3.85
2022-11-10T16:00:06.883Z,2.58
2022-11-10T16:02:52.180Z,3.20
2022-11-10T16:05:40.188Z,5.72
2022-11-10T16:08:26.634Z,5.95
2022-11-10T16:11:17.513Z,4.45
2022-11-10T16:14:03.684Z,6.82
2022-11-10T16:16:49.071Z,4.25
2022-11-10T16:19:34.202Z,5.72
2022-11-10T16:22:19.592Z,4.03
2022-11-10T16:25:05.260Z,5.13
2022-11-10T16:27:50.447Z,5.35
2022-11-10T16:30:35.806Z,5.60
2022-11-10T16:33:23.004Z,3.90
2022-11-10T16:36:27.902Z,4.15
2022-11-10T16:39:14.294Z,6.57
2022-11-10T16:41:59.406Z,6.47
2022-11-10T16:44:44.441Z,4.47
2022-11-10T16:47:31.073Z,3.67
2022-11-10T16:50:35.859Z,3.63
2022-11-10T16:53:25.475Z,5.80
2022-11-10T16:56:17.266Z,2.90
2022-11-10T16:59:04.316Z,6.15
2022-11-10T17:01:49.695Z,5.95
2022-11-10T17:04:35.502Z,6.53
2022-11-10T17:07:24.266Z,3.38
2022-11-10T17:10:16.937Z,3.60
2022-11-10T17:13:02.285Z,5.55
2022-11-10T17:15:47.857Z,3.85
2022-11-10T17:18:33.880Z,3.20
2022-11-10T17:21:20.192Z,5.47
2022-11-10T17:24:05.450Z,3.03
2022-11-10T17:26:50.808Z,5.30
2022-11-10T17:29:35.998Z,4.80
2022-11-10T17:32:37.104Z,3.97
2022-11-10T17:35:26.857Z,2.97
2022-11-10T17:38:12.856Z,3.40
2022-11-10T17:40:58.438Z,5.53
2022-11-10T17:43:45.911Z,5.53
2022-11-10T17:46:31.556Z,3.85
2022-11-10T17:49:16.967Z,4.85
2022-11-10T17:52:02.373Z,4.10
2022-11-10T17:54:47.737Z,2.78
2022-11-10T17:57:32.909Z,5.13
2022-11-10T18:00:18.592Z,5.80
2022-11-10T18:03:08.520Z,7.65
2022-11-10T18:05:53.951Z,8.38
2022-11-10T18:08:39.200Z,6.32
2022-11-10T18:11:24.584Z,6.30
2022-11-10T18:14:11.350Z,6.78
2022-11-10T18:16:56.817Z,4.97
2022-11-10T18:19:42.238Z,9.23
2022-11-10T18:22:27.595Z,4.93
2022-11-10T18:25:12.985Z,3.85
2022-11-10T18:27:58.096Z,6.57
2022-11-10T18:30:43.795Z,8.20
2022-11-10T18:33:29.271Z,5.00
2022-11-10T18:36:14.457Z,6.78
2022-11-10T18:38:59.570Z,6.15
2022-11-10T18:41:50.571Z,5.88
2022-11-10T18:44:37.012Z,5.72
2022-11-10T18:47:22.331Z,5.53
2022-11-10T18:50:07.849Z,4.82
2022-11-10T18:52:53.171Z,6.03
2022-11-10T18:55:41.801Z,5.38
2022-11-10T18:58:30.494Z,6.68
2022-11-10T19:01:16.289Z,4.72
2022-11-10T19:04:01.753Z,8.48
2022-11-10T19:06:47.211Z,7.63
2022-11-10T19:09:33.225Z,5.32
2022-11-10T19:12:22.616Z,4.88
2022-11-10T19:15:10.593Z,8.35
2022-11-10T19:17:55.788Z,9.77
2022-11-10T19:20:41.132Z,4.75
2022-11-10T19:23:26.908Z,4.15
2022-11-10T19:26:21.915Z,6.22
2022-11-10T19:29:08.206Z,6.32
2022-11-10T19:31:53.770Z,6.38
2022-11-10T19:34:39.266Z,7.43
2022-11-10T19:37:24.630Z,4.65
2022-11-10T19:40:10.115Z,4.30
2022-11-10T19:42:55.749Z,3.78
2022-11-10T19:45:42.316Z,4.60
2022-11-10T19:48:28.083Z,3.60
2022-11-10T19:51:14.380Z,5.13
2022-11-10T19:54:03.405Z,3.25
2022-11-10T19:56:48.875Z,5.88
2022-11-10T19:59:34.120Z,5.90
2022-11-10T20:02:19.635Z,6.30
2022-11-10T20:05:15.930Z,6.05
2022-11-10T20:08:13.337Z,5.65
2022-11-10T20:11:02.820Z,6.40
2022-11-10T20:13:53.338Z,5.22
2022-11-10T20:16:40.021Z,8.23
2022-11-10T20:19:25.620Z,7.43
2022-11-10T20:22:12.715Z,6.85
2022-11-10T20:24:58.440Z,8.95
2022-11-10T20:27:43.978Z,7.15
2022-11-10T20:30:29.625Z,5.90
2022-11-10T20:33:17.235Z,6.85
2022-11-10T20:36:14.783Z,14.90
2022-11-10T20:39:02.840Z,8.52
2022-11-10T20:41:48.243Z,12.55
2022-11-10T20:44:33.810Z,16.15
2022-11-10T20:47:19.292Z,13.50
2022-11-10T20:50:06.273Z,13.20
2022-11-10T20:52:53.232Z,18.10
2022-11-10T20:55:53.238Z,24.05
2022-11-10T20:58:39.963Z,19.27
2022-11-10T21:01:25.642Z,13.68
2022-11-10T21:04:11.130Z,14.40
2022-11-10T21:06:56.321Z,13.85
2022-11-10T21:09:41.540Z,14.13
2022-11-10T21:12:46.731Z,16.73
2022-11-10T21:15:32.283Z,22.80
2022-11-10T21:18:17.554Z,19.45
2022-11-10T21:21:04.171Z,15.88
2022-11-10T21:23:57.544Z,11.93
2022-11-10T21:26:43.296Z,9.52
2022-11-10T21:29:28.708Z,10.18
2022-11-10T21:32:13.817Z,15.82
2022-11-10T21:34:58.987Z,13.30
2022-11-10T21:37:44.304Z,12.95
2022-11-10T21:40:29.545Z,13.50
2022-11-10T21:43:15.094Z,12.23
2022-11-10T21:46:06.254Z,12.25
2022-11-10T21:48:51.809Z,12.95
2022-11-10T21:51:37.517Z,12.10
2022-11-10T21:54:22.825Z,12.38
2022-11-10T21:57:08.225Z,12.82
2022-11-10T21:59:53.426Z,18.05
2022-11-10T22:02:38.597Z,14.63
2022-11-10T22:05:23.791Z,13.65
2022-11-10T22:08:08.987Z,24.30
2022-11-10T22:11:12.789Z,17.35
2022-11-10T22:14:15.954Z,14.10
2022-11-10T22:17:19.437Z,15.40
2022-11-10T22:20:04.880Z,16.67
2022-11-10T22:22:50.331Z,18.95
2022-11-10T22:25:35.432Z,23.88
2022-11-10T22:28:20.966Z,19.88
2022-11-10T22:31:06.986Z,18.75
2022-11-10T22:33:52.196Z,29.02
2022-11-10T22:36:37.500Z,14.40
2022-11-10T22:39:22.927Z,13.02
2022-11-10T22:42:30.188Z,12.82
2022-11-10T22:45:15.689Z,12.88
2022-11-10T22:48:19.570Z,7.25
2022-11-10T22:51:05.026Z,7.65
2022-11-10T22:53:50.243Z,6.05
2022-11-10T22:56:35.468Z,7.15
2022-11-10T22:59:20.926Z,6.28
2022-11-10T23:02:06.023Z,8.05
2022-11-10T23:04:51.408Z,8.75
2022-11-10T23:07:36.914Z,7.32
2022-11-10T23:10:22.099Z,9.40
2022-11-10T23:13:07.157Z,5.55
2022-11-10T23:15:54.268Z,7.20
2022-11-10T23:18:40.276Z,9.32
2022-11-10T23:21:27.341Z,9.77
2022-11-10T23:24:13.563Z,10.13
2022-11-10T23:26:58.654Z,8.45
2022-11-10T23:29:43.814Z,15.25
2022-11-10T23:32:29.043Z,13.73
2022-11-10T23:35:14.339Z,11.00
2022-11-10T23:37:59.657Z,11.32
2022-11-10T23:40:45.058Z,19.20
2022-11-10T23:43:30.645Z,21.15
2022-11-10T23:46:15.788Z,11.55
2022-11-10T23:49:00.966Z,66.57
2022-11-10T23:51:45.989Z,32.75
2022-11-10T23:54:31.220Z,26.98
2022-11-10T23:57:16.351Z,24.42
